Time;durP1;ratioP1;P1;durP2;ratioP2;P2;SDS_P1;SDS_P2;PMS_P1;PMS_P2;Temp;Humidity;BMP_temperature;BMP_pressure;BME280_temperature;BME280_humidity;BME280_pressure;Samples;Min_cycle;Max_cycle;Signal;HPM_P1;HPM_P2
2023/09/04 00:01:24;;;;;;;3.77;3.40;;;;;;;;;;5054013;28;20462;-80
2023/09/04 00:03:50;;;;;;;4.17;3.53;;;;;;;;;;5043979;28;20946;-81
2023/09/04 00:06:16;;;;;;;3.93;3.43;;;;;;;;;;5043336;28;20478;-80
2023/09/04 00:08:43;;;;;;;3.97;3.53;;;;;;;;;;5047414;28;20484;-80
2023/09/04 00:11:09;;;;;;;3.53;3.27;;;;;;;;;;5053494;28;20472;-80
2023/09/04 00:13:37;;;;;;;5.97;3.80;;;;;;;;;;5052677;28;20479;-80
2023/09/04 00:16:04;;;;;;;3.87;3.43;;;;;;;;;;5040445;28;20981;-81
2023/09/04 00:18:31;;;;;;;3.30;3.00;;;;;;;;;;5060096;28;20475;-80
2023/09/04 00:20:57;;;;;;;3.90;3.30;;;;;;;;;;5052896;28;20464;-80
2023/09/04 00:23:23;;;;;;;7.30;4.10;;;;;;;;;;5060230;28;20460;-80
2023/09/04 00:25:50;;;;;;;4.50;4.10;;;;;;;;;;5047049;28;20527;-80
2023/09/04 00:28:18;;;;;;;4.33;3.93;;;;;;;;;;5046402;28;20439;-80
2023/09/04 00:30:46;;;;;;;4.63;4.00;;;;;;;;;;5053309;28;20461;-80
2023/09/04 00:33:12;;;;;;;9.20;4.63;;;;;;;;;;5058423;28;20443;-80
2023/09/04 00:35:39;;;;;;;4.17;3.87;;;;;;;;;;5041140;28;21047;-80
2023/09/04 00:38:05;;;;;;;4.87;3.90;;;;;;;;;;5045719;28;20437;-80
2023/09/04 00:40:31;;;;;;;4.13;3.20;;;;;;;;;;5046906;28;20472;-80
2023/09/04 00:42:59;;;;;;;5.40;3.63;;;;;;;;;;5045601;28;20461;-80
2023/09/04 00:45:25;;;;;;;7.80;3.43;;;;;;;;;;5058589;28;20442;-80
2023/09/04 00:47:53;;;;;;;4.20;3.10;;;;;;;;;;5048546;28;20454;-80
2023/09/04 00:50:21;;;;;;;5.50;3.67;;;;;;;;;;5054016;28;20443;-81
2023/09/04 00:52:47;;;;;;;5.17;3.77;;;;;;;;;;5055617;28;20463;-80
2023/09/04 00:55:15;;;;;;;4.90;4.00;;;;;;;;;;5054061;28;20448;-80
2023/09/04 00:57:42;;;;;;;4.87;4.47;;;;;;;;;;5053478;28;20474;-80
2023/09/04 01:00:10;;;;;;;4.27;3.80;;;;;;;;;;5050044;28;20439;-80
2023/09/04 01:02:39;;;;;;;4.40;3.60;;;;;;;;;;5048019;28;20516;-80
2023/09/04 01:05:08;;;;;;;4.60;3.83;;;;;;;;;;5043153;28;20533;-80
2023/09/04 01:07:37;;;;;;;6.50;3.90;;;;;;;;;;5043126;28;20487;-80
2023/09/04 01:10:03;;;;;;;7.13;3.93;;;;;;;;;;5057889;28;20878;-80
2023/09/04 01:12:34;;;;;;;7.40;3.27;;;;;;;;;;5063250;28;20491;-80
2023/09/04 01:15:02;;;;;;;3.70;3.20;;;;;;;;;;5050396;28;20447;-80
2023/09/04 01:17:29;;;;;;;4.10;3.70;;;;;;;;;;5056250;28;20468;-80
2023/09/04 01:19:55;;;;;;;4.67;4.00;;;;;;;;;;5037915;28;20454;-81
2023/09/04 01:22:24;;;;;;;4.60;3.80;;;;;;;;;;5045607;28;20442;-80
2023/09/04 01:24:51;;;;;;;6.03;4.40;;;;;;;;;;5056768;28;20446;-80
2023/09/04 01:27:23;;;;;;;5.77;4.63;;;;;;;;;;5053755;28;20483;-80
2023/09/04 01:29:53;;;;;;;4.57;4.23;;;;;;;;;;5053039;28;20447;-80
2023/09/04 01:32:26;;;;;;;4.73;4.30;;;;;;;;;;5053991;28;20470;-80
2023/09/04 01:34:53;;;;;;;5.50;4.23;;;;;;;;;;5056707;28;20437;-80
2023/09/04 01:37:20;;;;;;;5.07;4.57;;;;;;;;;;5044089;28;20481;-80
2023/09/04 01:39:49;;;;;;;5.10;4.20;;;;;;;;;;5052025;28;20447;-81
2023/09/04 01:42:15;;;;;;;6.57;4.50;;;;;;;;;;5052794;28;20478;-80
2023/09/04 01:44:43;;;;;;;4.53;4.13;;;;;;;;;;5061410;28;20851;-80
2023/09/04 01:47:09;;;;;;;6.03;4.73;;;;;;;;;;5058466;28;20484;-80
2023/09/04 01:49:36;;;;;;;5.43;4.20;;;;;;;;;;5058631;28;20467;-80
2023/09/04 01:52:02;;;;;;;4.40;3.40;;;;;;;;;;5054195;28;20469;-80
2023/09/04 01:54:29;;;;;;;5.10;3.30;;;;;;;;;;5035629;28;20455;-80
2023/09/04 01:56:56;;;;;;;3.40;3.20;;;;;;;;;;5055085;28;20459;-80
2023/09/04 01:59:23;;;;;;;3.70;3.30;;;;;;;;;;5059850;28;20445;-80
2023/09/04 02:01:49;;;;;;;4.27;3.63;;;;;;;;;;5057760;28;20490;-80
2023/09/04 02:04:16;;;;;;;4.20;3.03;;;;;;;;;;5060220;28;21066;-81
2023/09/04 02:06:42;;;;;;;3.73;3.43;;;;;;;;;;5062371;28;20456;-81
2023/09/04 02:09:08;;;;;;;5.43;3.83;;;;;;;;;;5059662;28;20964;-80
2023/09/04 02:11:35;;;;;;;3.97;3.60;;;;;;;;;;5047166;28;21005;-80
2023/09/04 02:14:02;;;;;;;4.93;4.20;;;;;;;;;;5056034;28;20484;-80
2023/09/04 02:16:29;;;;;;;4.07;3.77;;;;;;;;;;5049687;28;20995;-80
2023/09/04 02:18:56;;;;;;;3.70;3.40;;;;;;;;;;5061179;28;20461;-80
2023/09/04 02:21:22;;;;;;;4.70;4.30;;;;;;;;;;5049552;28;20503;-80
2023/09/04 02:23:49;;;;;;;4.60;4.23;;;;;;;;;;5059733;28;20959;-80
2023/09/04 02:26:15;;;;;;;5.17;3.93;;;;;;;;;;5058342;28;20480;-80
2023/09/04 02:28:42;;;;;;;4.73;4.30;;;;;;;;;;5043292;28;20455;-80
2023/09/04 02:31:11;;;;;;;4.10;3.70;;;;;;;;;;5054779;28;20492;-80
2023/09/04 02:33:37;;;;;;;4.27;3.87;;;;;;;;;;5052667;28;21003;-80
2023/09/04 02:36:04;;;;;;;4.67;4.20;;;;;;;;;;5044842;28;20451;-80
2023/09/04 02:38:31;;;;;;;4.30;3.90;;;;;;;;;;5054296;28;20457;-79
2023/09/04 02:40:57;;;;;;;4.13;3.83;;;;;;;;;;5049355;28;20476;-80
2023/09/04 02:43:23;;;;;;;5.63;5.03;;;;;;;;;;5051558;28;20470;-80
2023/09/04 02:45:50;;;;;;;4.90;4.50;;;;;;;;;;5053959;27;20451;-80
2023/09/04 02:48:17;;;;;;;5.30;4.80;;;;;;;;;;5049620;28;20458;-80
2023/09/04 02:50:44;;;;;;;5.10;4.70;;;;;;;;;;5049104;28;20442;-80
2023/09/04 02:53:11;;;;;;;7.13;4.90;;;;;;;;;;5055866;28;20483;-80
2023/09/04 02:55:37;;;;;;;6.50;5.20;;;;;;;;;;5054563;28;20504;-80
2023/09/04 02:58:04;;;;;;;5.73;5.23;;;;;;;;;;5053875;28;20874;-80
2023/09/04 03:00:32;;;;;;;6.20;5.30;;;;;;;;;;5061379;28;20454;-80
2023/09/04 03:03:01;;;;;;;5.50;4.60;;;;;;;;;;5050252;28;20458;-80
2023/09/04 03:05:29;;;;;;;5.50;5.00;;;;;;;;;;5047542;28;20440;-80
2023/09/04 03:07:55;;;;;;;8.43;5.17;;;;;;;;;;5065598;28;21000;-80
2023/09/04 03:10:21;;;;;;;5.33;4.33;;;;;;;;;;5048791;28;20439;-80
2023/09/04 03:12:48;;;;;;;5.60;5.10;;;;;;;;;;5044573;28;21164;-80
2023/09/04 03:15:14;;;;;;;6.77;4.93;;;;;;;;;;5051454;28;20455;-80
2023/09/04 03:17:40;;;;;;;6.37;5.63;;;;;;;;;;5062856;28;20433;-79
2023/09/04 03:20:09;;;;;;;6.50;4.87;;;;;;;;;;5057293;28;20486;-80
2023/09/04 03:22:37;;;;;;;7.33;5.13;;;;;;;;;;5033902;28;20476;-80
2023/09/04 03:25:03;;;;;;;4.83;4.30;;;;;;;;;;5044291;28;20824;-80
2023/09/04 03:27:30;;;;;;;5.93;4.33;;;;;;;;;;5055664;28;20472;-80
2023/09/04 03:29:58;;;;;;;6.93;5.40;;;;;;;;;;5036527;28;21026;-79
2023/09/04 03:32:24;;;;;;;6.20;4.80;;;;;;;;;;5044951;28;21002;-80
2023/09/04 03:34:51;;;;;;;5.30;4.80;;;;;;;;;;5051927;28;20464;-80
2023/09/04 03:37:17;;;;;;;6.27;5.67;;;;;;;;;;5047427;28;20484;-80
2023/09/04 03:39:45;;;;;;;7.00;4.80;;;;;;;;;;5051113;28;20471;-80
2023/09/04 03:42:12;;;;;;;5.60;5.10;;;;;;;;;;5070362;28;20455;-80
2023/09/04 03:44:38;;;;;;;4.50;4.10;;;;;;;;;;5046445;28;20831;-80
2023/09/04 03:47:05;;;;;;;6.07;5.00;;;;;;;;;;5051759;28;20502;-80
2023/09/04 03:49:31;;;;;;;7.30;5.30;;;;;;;;;;5046487;28;20471;-80
2023/09/04 03:51:57;;;;;;;6.83;6.20;;;;;;;;;;5040480;28;20468;-80
2023/09/04 03:54:24;;;;;;;6.73;6.03;;;;;;;;;;5064271;28;21086;-80
2023/09/04 03:56:52;;;;;;;5.37;4.87;;;;;;;;;;5049758;28;20489;-80
2023/09/04 03:59:18;;;;;;;6.90;5.10;;;;;;;;;;5050751;28;20854;-80
2023/09/04 04:01:45;;;;;;;4.67;4.13;;;;;;;;;;5052809;28;20561;-80
2023/09/04 04:04:12;;;;;;;5.97;4.53;;;;;;;;;;5055759;28;20585;-80
2023/09/04 04:06:39;;;;;;;6.10;5.20;;;;;;;;;;5062865;28;20978;-80
2023/09/04 04:09:06;;;;;;;6.63;4.90;;;;;;;;;;5053261;28;20561;-80
2023/09/04 04:11:33;;;;;;;6.43;5.50;;;;;;;;;;5050808;28;20900;-80
2023/09/04 04:14:01;;;;;;;5.60;4.63;;;;;;;;;;5047757;28;20509;-81
2023/09/04 04:16:28;;;;;;;4.03;3.57;;;;;;;;;;5051985;28;20489;-80
2023/09/04 04:18:54;;;;;;;5.53;5.00;;;;;;;;;;5059655;28;20439;-80
2023/09/04 04:21:20;;;;;;;5.93;5.33;;;;;;;;;;5051360;28;20506;-80
2023/09/04 04:23:48;;;;;;;5.73;5.23;;;;;;;;;;5048014;28;20465;-81
2023/09/04 04:26:14;;;;;;;5.57;5.07;;;;;;;;;;5048609;28;20487;-80
2023/09/04 04:28:41;;;;;;;5.73;5.13;;;;;;;;;;5054206;28;20507;-80
2023/09/04 04:31:08;;;;;;;7.43;5.80;;;;;;;;;;5051144;28;20471;-80
2023/09/04 04:33:35;;;;;;;6.67;5.40;;;;;;;;;;5047824;28;20865;-80
2023/09/04 04:36:03;;;;;;;8.97;5.87;;;;;;;;;;5050160;28;20480;-80
2023/09/04 04:38:29;;;;;;;6.57;6.00;;;;;;;;;;5051641;28;20483;-80
2023/09/04 04:40:56;;;;;;;7.13;6.40;;;;;;;;;;5048948;28;20489;-80
2023/09/04 04:43:23;;;;;;;7.30;5.80;;;;;;;;;;5067631;28;20491;-80
2023/09/04 04:45:49;;;;;;;14.27;6.73;;;;;;;;;;5056582;28;20485;-80
2023/09/04 04:48:19;;;;;;;6.90;5.30;;;;;;;;;;5048731;28;20478;-79
2023/09/04 04:50:45;;;;;;;7.37;6.40;;;;;;;;;;5037576;28;20527;-80
2023/09/04 04:53:14;;;;;;;6.67;5.97;;;;;;;;;;5055005;28;20498;-80
2023/09/04 04:55:40;;;;;;;6.57;5.90;;;;;;;;;;5040691;28;20495;-80
2023/09/04 04:58:07;;;;;;;8.60;6.90;;;;;;;;;;5050337;28;20480;-80
2023/09/04 05:00:34;;;;;;;9.10;7.13;;;;;;;;;;5042061;28;20526;-80
2023/09/04 05:03:00;;;;;;;8.00;7.20;;;;;;;;;;5045435;28;20854;-80
2023/09/04 05:05:28;;;;;;;8.73;7.27;;;;;;;;;;5046535;28;20473;-80
2023/09/04 05:07:54;;;;;;;11.03;8.73;;;;;;;;;;5040021;28;20978;-80
2023/09/04 05:10:20;;;;;;;9.20;7.63;;;;;;;;;;5056099;28;20481;-79
2023/09/04 05:12:47;;;;;;;9.50;7.67;;;;;;;;;;5059261;28;20567;-80
2023/09/04 05:15:16;;;;;;;8.53;7.00;;;;;;;;;;5048736;28;20490;-80
2023/09/04 05:17:44;;;;;;;6.73;5.87;;;;;;;;;;5057618;28;20483;-79
2023/09/04 05:20:11;;;;;;;6.37;5.67;;;;;;;;;;5047226;28;20443;-79
2023/09/04 05:22:39;;;;;;;8.57;6.93;;;;;;;;;;5031380;28;20471;-80
2023/09/04 05:25:06;;;;;;;9.60;6.97;;;;;;;;;;5058720;28;21042;-80
2023/09/04 05:27:32;;;;;;;7.57;6.87;;;;;;;;;;5043154;28;21033;-80
2023/09/04 05:29:58;;;;;;;6.73;6.00;;;;;;;;;;5043060;28;20484;-80
2023/09/04 05:32:25;;;;;;;8.43;6.27;;;;;;;;;;5067503;28;20714;-79
2023/09/04 05:34:55;;;;;;;8.00;5.97;;;;;;;;;;5057002;28;20476;-80
2023/09/04 05:37:21;;;;;;;8.50;6.20;;;;;;;;;;5059434;28;20485;-80
2023/09/04 05:39:49;;;;;;;8.47;5.70;;;;;;;;;;5054122;28;20464;-80
2023/09/04 05:42:15;;;;;;;9.83;7.47;;;;;;;;;;5048828;28;20496;-80
2023/09/04 05:44:42;;;;;;;8.80;6.83;;;;;;;;;;5057603;28;21027;-80
2023/09/04 05:47:10;;;;;;;7.80;7.00;;;;;;;;;;5054459;28;20492;-80
2023/09/04 05:49:37;;;;;;;12.47;6.77;;;;;;;;;;5059143;28;21042;-79
2023/09/04 05:52:04;;;;;;;8.67;6.83;;;;;;;;;;5053263;28;20491;-79
2023/09/04 05:54:30;;;;;;;15.53;10.40;;;;;;;;;;5050452;28;20485;-79
2023/09/04 05:56:58;;;;;;;11.03;9.63;;;;;;;;;;5065069;28;20486;-80
2023/09/04 05:59:26;;;;;;;12.83;8.17;;;;;;;;;;5054164;28;20489;-79
2023/09/04 06:01:52;;;;;;;9.83;8.80;;;;;;;;;;5053047;28;21047;-80
2023/09/04 06:04:18;;;;;;;10.70;8.67;;;;;;;;;;5058934;28;20476;-80
2023/09/04 06:06:45;;;;;;;20.40;11.07;;;;;;;;;;5042394;28;20474;-79
2023/09/04 06:09:12;;;;;;;12.30;9.10;;;;;;;;;;5063365;28;20472;-80
2023/09/04 06:11:39;;;;;;;12.07;10.13;;;;;;;;;;5053791;28;20487;-80
2023/09/04 06:14:06;;;;;;;14.73;11.00;;;;;;;;;;5049015;28;20465;-80
2023/09/04 06:16:33;;;;;;;10.53;9.00;;;;;;;;;;5053733;28;20483;-80
2023/09/04 06:19:00;;;;;;;10.33;9.23;;;;;;;;;;5048182;28;20479;-80
2023/09/04 06:21:26;;;;;;;13.17;9.37;;;;;;;;;;5057486;28;20484;-80
2023/09/04 06:23:53;;;;;;;12.87;9.50;;;;;;;;;;5065818;28;20554;-80
2023/09/04 06:26:19;;;;;;;15.77;11.33;;;;;;;;;;5053557;28;20482;-79
2023/09/04 06:28:46;;;;;;;16.60;11.13;;;;;;;;;;5052253;28;20522;-81
2023/09/04 06:31:14;;;;;;;18.03;11.67;;;;;;;;;;5057800;28;20449;-80
2023/09/04 06:33:40;;;;;;;21.47;14.17;;;;;;;;;;5047175;28;20454;-79
2023/09/04 06:36:06;;;;;;;25.17;14.50;;;;;;;;;;5052430;28;20445;-80
2023/09/04 06:38:34;;;;;;;21.93;14.20;;;;;;;;;;5053791;28;20483;-80
2023/09/04 06:41:01;;;;;;;22.00;17.43;;;;;;;;;;5054609;28;20475;-80
2023/09/04 06:43:29;;;;;;;22.23;16.50;;;;;;;;;;5054865;28;20466;-80
2023/09/04 06:45:56;;;;;;;25.70;18.57;;;;;;;;;;5058631;28;20451;-80
2023/09/04 06:48:23;;;;;;;21.13;17.53;;;;;;;;;;5060126;28;20487;-80
2023/09/04 06:50:50;;;;;;;29.80;18.80;;;;;;;;;;5054473;28;20447;-80
2023/09/04 06:53:16;;;;;;;23.10;19.00;;;;;;;;;;5056237;28;20488;-80
2023/09/04 06:55:43;;;;;;;30.57;21.70;;;;;;;;;;5062141;28;20462;-80
2023/09/04 06:58:11;;;;;;;23.23;20.80;;;;;;;;;;5050502;28;20486;-81
2023/09/04 07:00:37;;;;;;;24.03;20.30;;;;;;;;;;5059614;28;20445;-80
2023/09/04 07:03:04;;;;;;;24.80;18.70;;;;;;;;;;5055672;28;20485;-80
2023/09/04 07:05:32;;;;;;;17.30;15.50;;;;;;;;;;5043036;28;20435;-80
2023/09/04 07:07:58;;;;;;;22.30;16.80;;;;;;;;;;5052324;28;20486;-80
2023/09/04 07:10:24;;;;;;;19.40;16.37;;;;;;;;;;5065549;28;20439;-80
2023/09/04 07:12:51;;;;;;;17.57;15.77;;;;;;;;;;5038553;28;21054;-80
2023/09/04 07:15:18;;;;;;;17.70;13.63;;;;;;;;;;5049455;28;20473;-80
2023/09/04 07:17:44;;;;;;;13.93;12.50;;;;;;;;;;5047420;28;20807;-80
2023/09/04 07:20:11;;;;;;;11.17;10.03;;;;;;;;;;5056995;28;20478;-80
2023/09/04 07:22:39;;;;;;;10.50;9.50;;;;;;;;;;5052557;28;20476;-80
2023/09/04 07:25:06;;;;;;;11.53;10.43;;;;;;;;;;5051579;28;20472;-80
2023/09/04 07:27:32;;;;;;;11.17;10.07;;;;;;;;;;5055017;28;20487;-80
2023/09/04 07:29:59;;;;;;;10.30;9.00;;;;;;;;;;5045386;28;20479;-80
2023/09/04 07:32:26;;;;;;;10.73;9.73;;;;;;;;;;5056601;28;20572;-80
2023/09/04 07:34:55;;;;;;;11.33;9.13;;;;;;;;;;5046295;28;20524;-80
2023/09/04 07:37:22;;;;;;;8.60;7.80;;;;;;;;;;5056088;28;20557;-80
2023/09/04 07:39:52;;;;;;;9.10;8.10;;;;;;;;;;5042851;28;20479;-80
2023/09/04 07:42:18;;;;;;;8.70;7.83;;;;;;;;;;5052878;28;20475;-80
2023/09/04 07:44:44;;;;;;;10.30;8.87;;;;;;;;;;5055194;28;20467;-80
2023/09/04 07:47:12;;;;;;;8.10;7.40;;;;;;;;;;5060256;28;20551;-80
2023/09/04 07:49:38;;;;;;;7.30;6.60;;;;;;;;;;5055996;28;21027;-80
2023/09/04 07:52:06;;;;;;;11.07;7.80;;;;;;;;;;5045010;28;20954;-79
2023/09/04 07:54:32;;;;;;;6.90;6.30;;;;;;;;;;5059956;28;20845;-79
2023/09/04 07:57:04;;;;;;;8.57;7.77;;;;;;;;;;5043835;28;20520;-80
2023/09/04 07:59:30;;;;;;;7.30;6.60;;;;;;;;;;5039894;28;20546;-80
2023/09/04 08:01:57;;;;;;;10.97;7.90;;;;;;;;;;5060360;28;20491;-80
2023/09/04 08:04:24;;;;;;;9.33;7.57;;;;;;;;;;5040355;28;20467;-80
2023/09/04 08:06:50;;;;;;;10.00;8.23;;;;;;;;;;5054100;28;20578;-80
2023/09/04 08:09:16;;;;;;;10.77;8.17;;;;;;;;;;5064482;28;20467;-80
2023/09/04 08:11:43;;;;;;;8.80;7.90;;;;;;;;;;5056833;28;20481;-80
2023/09/04 08:14:10;;;;;;;8.17;7.20;;;;;;;;;;5063979;28;20473;-80
2023/09/04 08:16:37;;;;;;;11.53;8.67;;;;;;;;;;5059992;28;20483;-80
2023/09/04 08:19:03;;;;;;;12.40;6.93;;;;;;;;;;5054466;28;20530;-80
2023/09/04 08:21:30;;;;;;;9.00;7.17;;;;;;;;;;5055643;28;21006;-80
2023/09/04 08:23:56;;;;;;;12.67;8.20;;;;;;;;;;5038171;28;20475;-80
2023/09/04 08:26:23;;;;;;;8.50;7.40;;;;;;;;;;5054184;28;20557;-80
2023/09/04 08:28:49;;;;;;;7.70;6.90;;;;;;;;;;5052503;28;20484;-81
2023/09/04 08:31:17;;;;;;;10.93;7.50;;;;;;;;;;5052465;28;20493;-80
2023/09/04 08:33:43;;;;;;;10.80;7.77;;;;;;;;;;5043955;28;20889;-79
2023/09/04 08:36:10;;;;;;;12.53;7.70;;;;;;;;;;5063808;28;20475;-80
2023/09/04 08:38:36;;;;;;;9.50;6.83;;;;;;;;;;5054339;28;20484;-81
2023/09/04 08:41:06;;;;;;;11.53;7.00;;;;;;;;;;5046561;28;20472;-80
2023/09/04 08:43:32;;;;;;;7.40;6.57;;;;;;;;;;5063981;28;20899;-79
2023/09/04 08:46:00;;;;;;;10.27;6.27;;;;;;;;;;5056169;28;20837;-80
2023/09/04 08:48:29;;;;;;;7.53;5.60;;;;;;;;;;5058277;28;21056;-80
2023/09/04 08:50:57;;;;;;;15.50;6.17;;;;;;;;;;5051744;28;20476;-80
2023/09/04 08:53:23;;;;;;;6.83;4.93;;;;;;;;;;5055316;28;20576;-80
2023/09/04 08:55:50;;;;;;;5.93;4.43;;;;;;;;;;5056577;28;20492;-80
2023/09/04 08:58:17;;;;;;;5.93;5.37;;;;;;;;;;5057441;28;20487;-80
2023/09/04 09:00:43;;;;;;;7.00;5.40;;;;;;;;;;5045672;28;20479;-80
2023/09/04 09:03:10;;;;;;;6.63;4.60;;;;;;;;;;5062309;28;20484;-80
2023/09/04 09:05:38;;;;;;;5.37;4.87;;;;;;;;;;5046633;28;20495;-80
2023/09/04 09:08:05;;;;;;;6.97;5.80;;;;;;;;;;5053165;28;20486;-80
2023/09/04 09:10:32;;;;;;;5.17;4.67;;;;;;;;;;5051807;28;20471;-80
2023/09/04 09:13:00;;;;;;;4.40;3.47;;;;;;;;;;5049469;28;20847;-80
2023/09/04 09:15:26;;;;;;;8.67;3.93;;;;;;;;;;5032771;28;20868;-80
2023/09/04 09:17:53;;;;;;;3.97;3.13;;;;;;;;;;5057967;28;20487;-80
2023/09/04 09:20:32;;;;;;;5.27;3.83;;;;;;;;;;5049315;28;20482;-80
2023/09/04 09:23:01;;;;;;;3.17;2.60;;;;;;;;;;5055156;28;20474;-80
2023/09/04 09:25:28;;;;;;;3.60;3.30;;;;;;;;;;5056525;28;20478;-80
2023/09/04 09:27:59;;;;;;;2.53;2.33;;;;;;;;;;5058930;28;20506;-80
2023/09/04 09:30:25;;;;;;;2.87;2.67;;;;;;;;;;5049184;28;21014;-80
2023/09/04 09:32:53;;;;;;;3.03;2.73;;;;;;;;;;5059176;28;20867;-80
2023/09/04 09:35:21;;;;;;;5.83;3.03;;;;;;;;;;5042132;28;20483;-80
2023/09/04 09:37:48;;;;;;;5.70;2.90;;;;;;;;;;5033637;28;20489;-80
2023/09/04 09:40:17;;;;;;;3.03;2.73;;;;;;;;;;5061933;28;20486;-80
2023/09/04 09:42:43;;;;;;;3.20;2.90;;;;;;;;;;5046699;28;20475;-80
2023/09/04 09:45:10;;;;;;;7.30;3.13;;;;;;;;;;5035222;28;20902;-80
2023/09/04 09:47:37;;;;;;;4.60;3.10;;;;;;;;;;5047206;28;20494;-80
2023/09/04 09:50:04;;;;;;;3.70;2.77;;;;;;;;;;5052189;28;20471;-80
2023/09/04 09:52:30;;;;;;;3.57;3.17;;;;;;;;;;5065694;28;20592;-80
2023/09/04 09:54:57;;;;;;;3.27;3.00;;;;;;;;;;5047259;28;20489;-80
2023/09/04 09:57:25;;;;;;;3.20;2.93;;;;;;;;;;5054168;28;20489;-80
2023/09/04 09:59:51;;;;;;;3.13;2.73;;;;;;;;;;5051496;28;20471;-80
2023/09/04 10:02:19;;;;;;;4.43;2.50;;;;;;;;;;5045038;28;20491;-80
2023/09/04 10:04:45;;;;;;;5.90;2.80;;;;;;;;;;5040323;28;21028;-80
2023/09/04 10:07:15;;;;;;;3.60;2.97;;;;;;;;;;5060921;28;20482;-80
2023/09/04 10:09:43;;;;;;;5.43;3.30;;;;;;;;;;5050433;28;21016;-80
2023/09/04 10:12:14;;;;;;;4.53;3.47;;;;;;;;;;5057093;28;20537;-80
2023/09/04 10:14:42;;;;;;;3.60;3.27;;;;;;;;;;5045075;28;20477;-80
2023/09/04 10:17:11;;;;;;;5.83;3.23;;;;;;;;;;5045503;28;20474;-80
2023/09/04 10:19:42;;;;;;;3.93;3.10;;;;;;;;;;5067601;28;21077;-80
2023/09/04 10:22:10;;;;;;;3.30;2.70;;;;;;;;;;5057197;28;20474;-80
2023/09/04 10:24:46;;;;;;;3.53;3.20;;;;;;;;;;5059924;28;20468;-79
2023/09/04 10:27:14;;;;;;;5.90;3.80;;;;;;;;;;5046778;28;20978;-80
2023/09/04 10:29:46;;;;;;;5.30;3.40;;;;;;;;;;5063018;28;20471;-80
2023/09/04 10:32:13;;;;;;;3.93;3.37;;;;;;;;;;5046657;28;20521;-80
2023/09/04 10:34:41;;;;;;;4.90;3.50;;;;;;;;;;5060425;28;20475;-80
2023/09/04 10:37:09;;;;;;;3.23;2.67;;;;;;;;;;5055338;28;20548;-80
2023/09/04 10:39:36;;;;;;;7.80;3.63;;;;;;;;;;5063444;28;20470;-80
2023/09/04 10:42:04;;;;;;;4.40;3.60;;;;;;;;;;5029103;28;20456;-80
2023/09/04 10:44:45;;;;;;;5.90;3.47;;;;;;;;;;5057589;28;20482;-80
2023/09/04 10:47:13;;;;;;;5.00;3.20;;;;;;;;;;5064546;28;20989;-80
2023/09/04 10:49:41;;;;;;;3.00;2.70;;;;;;;;;;5048242;28;20487;-80
2023/09/04 10:52:08;;;;;;;4.57;2.90;;;;;;;;;;5051813;28;20481;-80
2023/09/04 10:54:34;;;;;;;3.20;2.90;;;;;;;;;;5064547;28;20477;-80
2023/09/04 10:57:02;;;;;;;4.87;3.40;;;;;;;;;;5063222;28;20459;-80
2023/09/04 10:59:28;;;;;;;3.70;2.63;;;;;;;;;;5052942;28;20534;-80
2023/09/04 11:01:55;;;;;;;5.77;2.57;;;;;;;;;;5067411;28;20459;-80
2023/09/04 11:04:33;;;;;;;4.67;3.33;;;;;;;;;;5061182;28;20470;-80
2023/09/04 11:07:18;;;;;;;5.37;3.33;;;;;;;;;;5053777;28;20499;-80
2023/09/04 11:09:45;;;;;;;5.20;3.40;;;;;;;;;;5042301;28;20474;-80
2023/09/04 11:12:11;;;;;;;5.57;3.40;;;;;;;;;;5053017;28;20491;-79
2023/09/04 11:14:44;;;;;;;5.00;3.40;;;;;;;;;;5050595;28;20480;-80
2023/09/04 11:17:11;;;;;;;8.80;4.70;;;;;;;;;;5042222;28;20480;-80
2023/09/04 11:19:38;;;;;;;3.70;3.40;;;;;;;;;;5041114;28;20848;-80
2023/09/04 11:22:05;;;;;;;5.93;4.27;;;;;;;;;;5052021;28;20483;-80
2023/09/04 11:24:31;;;;;;;7.90;4.13;;;;;;;;;;5052335;28;20474;-80
2023/09/04 11:26:57;;;;;;;7.63;3.50;;;;;;;;;;5069580;28;20459;-80
2023/09/04 11:29:24;;;;;;;5.97;3.90;;;;;;;;;;5058904;28;20998;-80
2023/09/04 11:31:51;;;;;;;6.90;2.93;;;;;;;;;;5060358;28;20850;-80
2023/09/04 11:34:20;;;;;;;3.60;3.30;;;;;;;;;;5045126;28;20820;-80
2023/09/04 11:36:47;;;;;;;4.30;2.70;;;;;;;;;;5052832;28;20993;-80
2023/09/04 11:39:14;;;;;;;3.30;2.90;;;;;;;;;;5037889;28;20498;-80
2023/09/04 11:41:40;;;;;;;10.40;4.23;;;;;;;;;;5033455;28;20486;-80
2023/09/04 11:44:08;;;;;;;6.13;3.87;;;;;;;;;;5055721;28;20836;-80
2023/09/04 11:46:34;;;;;;;4.73;4.17;;;;;;;;;;5059567;28;20482;-79
2023/09/04 11:49:02;;;;;;;5.53;4.10;;;;;;;;;;5054975;28;20456;-80
2023/09/04 11:51:28;;;;;;;5.33;3.67;;;;;;;;;;5034265;28;20903;-80
2023/09/04 11:53:56;;;;;;;4.57;3.70;;;;;;;;;;5063478;28;20804;-81
2023/09/04 11:56:23;;;;;;;5.50;4.07;;;;;;;;;;5060597;28;20456;-80
2023/09/04 11:58:49;;;;;;;4.20;3.77;;;;;;;;;;5046594;28;20494;-81
2023/09/04 12:01:15;;;;;;;5.27;3.87;;;;;;;;;;5047544;28;20971;-80
2023/09/04 12:03:42;;;;;;;7.57;3.83;;;;;;;;;;5055522;28;20478;-80
2023/09/04 12:06:10;;;;;;;4.67;3.10;;;;;;;;;;5050615;28;20981;-80
2023/09/04 12:08:36;;;;;;;4.97;3.93;;;;;;;;;;5051756;28;20470;-80
2023/09/04 12:11:04;;;;;;;4.47;3.30;;;;;;;;;;5043930;28;20853;-80
2023/09/04 12:13:31;;;;;;;3.77;3.40;;;;;;;;;;5052556;28;21017;-80
2023/09/04 12:16:04;;;;;;;3.40;2.93;;;;;;;;;;5046083;28;20487;-80
2023/09/04 12:18:31;;;;;;;3.23;2.93;;;;;;;;;;5064362;28;20470;-80
2023/09/04 12:20:57;;;;;;;3.70;3.23;;;;;;;;;;5040875;28;20483;-80
2023/09/04 12:23:39;;;;;;;4.60;2.70;;;;;;;;;;5046697;28;20483;-80
2023/09/04 12:26:09;;;;;;;3.97;2.80;;;;;;;;;;5044828;28;20530;-80
2023/09/04 12:28:36;;;;;;;4.40;3.33;;;;;;;;;;5063904;28;20459;-80
2023/09/04 12:31:03;;;;;;;4.43;3.23;;;;;;;;;;5058010;28;20468;-80
2023/09/04 12:33:29;;;;;;;5.80;3.40;;;;;;;;;;5046803;28;20492;-80
2023/09/04 12:35:56;;;;;;;4.50;3.40;;;;;;;;;;5066953;28;20478;-80
2023/09/04 12:38:23;;;;;;;4.03;3.17;;;;;;;;;;5050174;28;20551;-80
2023/09/04 12:40:49;;;;;;;6.20;4.07;;;;;;;;;;5059743;28;20475;-80
2023/09/04 12:43:17;;;;;;;6.23;3.90;;;;;;;;;;5040054;28;20525;-80
2023/09/04 12:45:43;;;;;;;6.30;3.70;;;;;;;;;;5059887;28;20469;-80
2023/09/04 12:48:14;;;;;;;6.07;4.00;;;;;;;;;;5043337;28;20484;-80
2023/09/04 12:50:41;;;;;;;6.23;4.63;;;;;;;;;;5057242;28;20460;-79
2023/09/04 12:53:07;;;;;;;8.73;4.40;;;;;;;;;;5048469;28;20681;-80
2023/09/04 12:55:34;;;;;;;4.07;3.67;;;;;;;;;;5048548;28;20491;-80
2023/09/04 12:58:01;;;;;;;4.40;3.93;;;;;;;;;;5055935;28;20474;-80
2023/09/04 13:00:29;;;;;;;9.07;3.30;;;;;;;;;;5060550;28;20464;-80
2023/09/04 13:02:55;;;;;;;5.63;3.07;;;;;;;;;;5054163;28;21013;-80
2023/09/04 13:05:24;;;;;;;6.40;3.43;;;;;;;;;;5052744;28;20471;-80
2023/09/04 13:07:50;;;;;;;3.23;2.80;;;;;;;;;;5050155;28;21064;-80
2023/09/04 13:10:17;;;;;;;6.80;3.20;;;;;;;;;;5049555;28;20464;-80
2023/09/04 13:12:44;;;;;;;3.20;3.00;;;;;;;;;;5057834;28;20472;-80
2023/09/04 13:15:12;;;;;;;4.53;3.60;;;;;;;;;;5050090;28;20481;-80
2023/09/04 13:17:41;;;;;;;7.10;4.30;;;;;;;;;;5054756;28;20470;-80
2023/09/04 13:20:10;;;;;;;6.20;3.70;;;;;;;;;;5051260;28;20463;-80
2023/09/04 13:22:36;;;;;;;5.17;3.40;;;;;;;;;;5056115;28;20478;-79
2023/09/04 13:25:03;;;;;;;3.63;3.10;;;;;;;;;;5057130;28;20475;-80
2023/09/04 13:27:29;;;;;;;5.10;3.93;;;;;;;;;;5060398;28;20467;-80
2023/09/04 13:29:56;;;;;;;3.70;3.40;;;;;;;;;;5045457;28;20459;-80
2023/09/04 13:32:23;;;;;;;5.67;3.93;;;;;;;;;;5063968;28;20487;-80
2023/09/04 13:34:50;;;;;;;8.10;4.40;;;;;;;;;;5046116;28;20870;-80
2023/09/04 13:37:17;;;;;;;4.43;3.93;;;;;;;;;;5064872;28;20976;-80
2023/09/04 13:39:43;;;;;;;6.00;4.07;;;;;;;;;;5057497;28;20463;-80
2023/09/04 13:42:10;;;;;;;4.03;3.67;;;;;;;;;;5060643;28;21004;-80
2023/09/04 13:44:36;;;;;;;4.50;3.93;;;;;;;;;;5068162;28;20479;-80
2023/09/04 13:47:03;;;;;;;6.93;4.30;;;;;;;;;;5055510;28;20466;-80
2023/09/04 13:49:30;;;;;;;5.20;3.50;;;;;;;;;;5055664;28;20579;-80
2023/09/04 13:51:57;;;;;;;7.93;4.40;;;;;;;;;;5072696;28;20482;-80
2023/09/04 13:54:24;;;;;;;4.00;3.63;;;;;;;;;;5062596;28;20467;-80
2023/09/04 13:56:51;;;;;;;4.70;4.13;;;;;;;;;;5070437;28;20465;-80
2023/09/04 13:59:17;;;;;;;3.97;3.67;;;;;;;;;;5050355;28;20486;-80
2023/09/04 14:01:48;;;;;;;4.10;3.80;;;;;;;;;;5065221;28;20550;-80
2023/09/04 14:04:14;;;;;;;4.23;3.60;;;;;;;;;;5025201;28;20468;-80
2023/09/04 14:06:40;;;;;;;4.13;3.73;;;;;;;;;;5049634;28;20490;-80
2023/09/04 14:09:11;;;;;;;7.23;3.80;;;;;;;;;;5051152;28;20465;-80
2023/09/04 14:11:37;;;;;;;5.77;3.87;;;;;;;;;;5054049;28;20984;-80
2023/09/04 14:14:05;;;;;;;6.43;4.20;;;;;;;;;;5049999;28;20462;-80
2023/09/04 14:16:32;;;;;;;5.07;4.53;;;;;;;;;;5054298;28;20491;-79
2023/09/04 14:18:58;;;;;;;4.50;4.10;;;;;;;;;;5050761;28;20470;-80
2023/09/04 14:21:25;;;;;;;4.43;4.03;;;;;;;;;;5056494;28;20470;-80
2023/09/04 14:23:51;;;;;;;4.90;4.20;;;;;;;;;;5058633;28;20495;-81
2023/09/04 14:26:19;;;;;;;5.53;3.87;;;;;;;;;;5058091;28;20568;-80
2023/09/04 14:28:45;;;;;;;7.70;3.43;;;;;;;;;;5047529;28;20480;-80
2023/09/04 14:31:13;;;;;;;4.17;3.57;;;;;;;;;;5066418;28;20466;-80
2023/09/04 14:33:39;;;;;;;4.57;3.30;;;;;;;;;;5025489;28;20556;-80
2023/09/04 14:36:06;;;;;;;6.10;3.90;;;;;;;;;;5060035;28;20468;-80
2023/09/04 14:38:35;;;;;;;4.80;3.80;;;;;;;;;;5045170;28;20477;-80
2023/09/04 14:41:09;;;;;;;5.43;4.20;;;;;;;;;;5045310;28;20499;-80